Historyczne dane pomiarowe

Dodano dane terminowe – wersja testowa.

Dane z okresu 1951-2019

Wersja bazy: 1.34 [2019-03-16, lista zmian], aktualizacja planowana na 2019-04-15

Dane meteo z obszaru Polski uzyskane na podstawie danych udostępnionych przez Instytut Meteorologii i Gospodarki Wodnej – Państwowy Instytut Badawczy.

 

Wybierz Datę:    

       

TemperaturaWilgotnośćWiatrCiśnienieOpadyŚniegCzas trwania zjawisk
 Stacja t tx tn tng RH VA  wxwx mslp ppp RRR   cm mm wxwxwxwxwxwxwx
1999-08-14 17.2 24.0 9.7 5.8 58.0- 2.7 1.3---- 0.0------------
1999-08-13 16.6 22.7 12.1 9.5 63.8- 5.7 1.7---- 0.0------------
1999-08-12 17.2 23.3 12.2 9.0 64.8- 6.7 1.7---- 0.0------------
1999-08-11 19.5 24.9 16.2 13.4 74.3- 4.7 2.7---- 2.5------------
1999-08-10 19.8 23.0 15.2 11.2 82.3- 8.0 1.3---- 1.2------------
1999-08-09 22.8 30.4 17.6 12.5 72.3- 5.7 1.0---- 1.2------------
1999-08-08 23.8 32.0 16.6 14.3 71.5- 3.3 1.3---- 0.0------------
1999-08-07 21.5 32.6 14.1 11.2 76.8- 5.0 0.3---- 1.4------------
1999-08-06 22.3 29.3 15.3 12.1 71.5- 4.7 1.7---- 0.0------------
1999-08-05 19.4 28.8 10.1 6.8 60.5- 3.7 0.7---- 2.3------------
1999-08-04 19.1 28.5 9.7 6.8 63.8- 3.0 0.3---- 0.0------------
1999-08-03 18.3 27.7 8.9 5.8 65.3- 3.3 1.0---- 0.0------------
1999-08-02 19.1 27.0 10.7 7.6 65.8- 5.3 1.0---- 0.0------------
1999-08-01 19.4 28.1 11.2 8.0 58.3- 4.0 2.7---- 0.0------------
1999-07-31 19.2 27.0 10.6 7.3 61.8- 5.0 0.7---- 0.0------------
1999-07-30 18.9 26.0 10.4 7.1 62.3- 3.0 1.0---- 0.0------------
1999-07-29 19.6 25.9 12.6 7.8 57.5- 3.7 3.0---- 0.0------------
1999-07-28 19.6 25.3 12.9 8.9 59.5- 1.3 1.7---- 0.0------------
1999-07-27 19.8 25.3 16.0 15.1 70.0- 5.0 1.7---- 1.2------------
1999-07-26 21.1 29.8 10.9 8.1 64.8- 2.7 0.0---- 0.0------------
1999-07-25 18.6 26.8 8.4 5.8 70.5- 0.3 0.3---- 0.0------------
1999-07-24 17.8 22.9 14.1 13.3 75.5- 5.0 0.7---- 0.0------------
1999-07-23 17.3 23.6 12.8 10.8 75.8- 8.0 1.0---- 0.0------------
1999-07-22 19.6 25.0 15.7 11.9 65.5- 6.7 2.3---- 0.0------------
1999-07-21 23.1 30.0 16.5 13.2 67.5- 4.7 2.0---- 3.6------------
1999-07-20 22.8 32.9 13.3 10.0 58.8- 2.3 3.7---- 0.0------------
1999-07-19 22.0 30.5 11.9 8.5 61.3- 1.7 0.3---- 0.0------------
1999-07-18 21.0 30.4 10.7 8.3 64.0- 1.3 0.3---- 0.0------------
1999-07-17 19.0 27.3 10.2 7.3 65.5- 1.3 0.7---- 0.0------------
1999-07-16 17.3 24.0 10.6 7.9 72.3- 3.7 0.7---- 0.0------------
1999-07-15 17.9 21.8 14.7 12.9 68.0- 5.3 3.3---- 0.9------------
1999-07-14 21.1 27.9 16.1 13.5 76.8- 6.3 2.0---- 0.2------------
1999-07-13 21.4 29.6 15.5 12.6 80.8- 6.0 3.0---- 0.0------------
1999-07-12 21.8 29.3 15.3 12.6 76.5- 7.0 1.7---- 0.0------------
1999-07-11 20.8 23.4 17.3 16.3 79.3- 4.7 0.7---- 9.0------------
1999-07-10 21.6 25.9 16.6 14.6 68.5- 5.0 5.0---- 0.0------------
1999-07-09 18.6 21.4 15.1 14.4 92.5- 8.0 2.7---- 0.0------------
1999-07-08 15.9 18.2 14.6 13.8 97.0- 8.0 1.3---- 17.7------------
1999-07-07 19.3 22.9 17.8 17.1 90.3- 8.0 1.3---- 13.5------------
1999-07-06 24.0 33.8 17.5 13.6 71.0- 4.0 7.3---- 45.4------------
1999-07-05 24.4 31.6 15.7 11.3 62.3- 0.3 2.7---- 0.0------------
1999-07-04 24.0 32.6 12.7 9.2 61.0- 2.0 1.0---- 0.0------------
1999-07-03 20.5 27.6 12.1 10.2 68.3- 1.3 1.3---- 0.0------------
1999-07-02 20.2 26.3 13.9 10.6 79.0- 4.0 0.0---- 1.1------------
1999-07-01 20.5 25.0 15.2 11.4 78.3- 6.0 2.0---- 2.0------------
1999-06-30 20.4 27.0 12.7 10.2 75.8- 3.3 0.7---- 0.0------------
1999-06-29 19.7 25.0 12.4 9.7 62.0- 3.0 1.0---- 0.0------------
1999-06-28 21.4 28.7 16.0 14.6 76.0- 3.7 2.3---- 1.0------------
1999-06-27 20.6 26.6 13.9 10.1 62.0- 4.7 3.3---- 4.1------------
1999-06-26 16.8 22.5 10.2 9.7 76.5- 6.0 1.3---- 0.0------------
1999-06-25 13.5 20.5 6.4 3.7 79.5- 7.3 0.0---- 6.6------------
1999-06-24 12.9 19.9 5.0 2.2 75.8- 4.7 1.0---- 0.0------------
1999-06-23 13.6 18.9 9.2 8.5 80.0- 7.3 4.0---- 0.0------------
1999-06-22 10.1 13.3 8.3 7.5 95.3- 8.0 5.0---- 25.8------------
1999-06-21 17.1 22.5 13.1 11.3 80.0- 6.3 2.3---- 12.0------------
1999-06-20 18.0 24.5 9.5 7.5 80.0- 7.0 0.3---- 0.0------------
1999-06-19 16.3 21.3 12.2 11.8 93.5- 8.0 2.3---- 0.0------------
1999-06-18 16.3 21.4 13.3 11.8 96.0- 8.0 2.7---- 23.7------------
1999-06-17 19.6 24.8 14.6 11.0 85.8- 6.7 0.3---- 0.0------------
1999-06-16 18.0 22.4 14.9 14.1 86.5- 8.0 0.3---- 0.0------------
257.2 ms

 

Źródłem pochodzenia danych jest Instytut Meteorologii i Gospodarki Wodnej – Państwowy Instytut Badawczy. Dane Instytutu Meteorologii i Gospodarki Wodnej – Państwowego Instytutu Badawczego zostały przetworzone.

Dane źródłowe można odnaleźć na stronie https://dane.imgw.pl